sensor_id;sensor_type;location;lat;lon;timestamp;P1;durP1;ratioP1;P2;durP2;ratioP2
5010;SDS011;2524;54.364;10.072;2022-09-13T00:00:17;2.53;;;2.43;;
5010;SDS011;2524;54.364;10.072;2022-09-13T00:02:43;2.97;;;2.80;;
5010;SDS011;2524;54.364;10.072;2022-09-13T00:05:09;3.23;;;3.13;;
5010;SDS011;2524;54.364;10.072;2022-09-13T00:07:35;3.03;;;2.93;;
5010;SDS011;2524;54.364;10.072;2022-09-13T00:10:01;4.20;;;3.53;;
5010;SDS011;2524;54.364;10.072;2022-09-13T00:12:27;3.60;;;3.40;;
5010;SDS011;2524;54.364;10.072;2022-09-13T00:14:53;4.03;;;3.83;;
5010;SDS011;2524;54.364;10.072;2022-09-13T00:17:19;4.00;;;3.70;;
5010;SDS011;2524;54.364;10.072;2022-09-13T00:19:45;3.27;;;3.07;;
5010;SDS011;2524;54.364;10.072;2022-09-13T00:22:11;3.57;;;3.30;;
5010;SDS011;2524;54.364;10.072;2022-09-13T00:24:37;4.33;;;4.03;;
5010;SDS011;2524;54.364;10.072;2022-09-13T00:27:03;3.80;;;3.60;;
5010;SDS011;2524;54.364;10.072;2022-09-13T00:29:29;3.23;;;3.13;;
5010;SDS011;2524;54.364;10.072;2022-09-13T00:31:55;4.07;;;3.87;;
5010;SDS011;2524;54.364;10.072;2022-09-13T00:34:22;3.87;;;3.57;;
5010;SDS011;2524;54.364;10.072;2022-09-13T00:36:48;3.40;;;3.30;;
5010;SDS011;2524;54.364;10.072;2022-09-13T00:39:13;3.50;;;3.30;;
5010;SDS011;2524;54.364;10.072;2022-09-13T00:41:39;4.10;;;3.70;;
5010;SDS011;2524;54.364;10.072;2022-09-13T00:44:41;3.47;;;3.27;;
5010;SDS011;2524;54.364;10.072;2022-09-13T00:46:51;3.13;;;3.03;;
5010;SDS011;2524;54.364;10.072;2022-09-13T00:51:53;2.90;;;2.80;;
5010;SDS011;2524;54.364;10.072;2022-09-13T00:54:21;3.67;;;3.47;;
5010;SDS011;2524;54.364;10.072;2022-09-13T00:56:49;4.60;;;4.30;;
5010;SDS011;2524;54.364;10.072;2022-09-13T00:59:21;4.03;;;3.80;;
5010;SDS011;2524;54.364;10.072;2022-09-13T01:01:50;3.43;;;3.23;;
5010;SDS011;2524;54.364;10.072;2022-09-13T01:04:17;3.70;;;3.50;;
5010;SDS011;2524;54.364;10.072;2022-09-13T01:06:45;3.40;;;3.20;;
5010;SDS011;2524;54.364;10.072;2022-09-13T01:09:11;3.37;;;3.17;;
5010;SDS011;2524;54.364;10.072;2022-09-13T01:14:09;3.10;;;3.00;;
5010;SDS011;2524;54.364;10.072;2022-09-13T01:16:36;3.20;;;3.10;;
5010;SDS011;2524;54.364;10.072;2022-09-13T01:19:02;3.20;;;3.10;;
5010;SDS011;2524;54.364;10.072;2022-09-13T01:37:43;3.97;;;3.77;;
5010;SDS011;2524;54.364;10.072;2022-09-13T01:39:54;4.57;;;4.23;;
5010;SDS011;2524;54.364;10.072;2022-09-13T01:47:53;5.00;;;4.60;;
5010;SDS011;2524;54.364;10.072;2022-09-13T01:52:54;4.93;;;4.60;;
5010;SDS011;2524;54.364;10.072;2022-09-13T01:55:29;5.43;;;5.10;;
5010;SDS011;2524;54.364;10.072;2022-09-13T02:00:27;6.40;;;5.90;;
5010;SDS011;2524;54.364;10.072;2022-09-13T02:02:55;7.20;;;6.50;;
5010;SDS011;2524;54.364;10.072;2022-09-13T02:08:11;5.10;;;4.80;;
5010;SDS011;2524;54.364;10.072;2022-09-13T02:10:40;5.70;;;5.30;;
5010;SDS011;2524;54.364;10.072;2022-09-13T02:13:09;8.13;;;7.43;;
5010;SDS011;2524;54.364;10.072;2022-09-13T02:15:37;6.80;;;6.20;;
5010;SDS011;2524;54.364;10.072;2022-09-13T02:18:09;6.23;;;5.30;;
5010;SDS011;2524;54.364;10.072;2022-09-13T02:20:37;5.50;;;5.00;;
5010;SDS011;2524;54.364;10.072;2022-09-13T02:23:07;5.60;;;5.20;;
5010;SDS011;2524;54.364;10.072;2022-09-13T02:25:35;4.97;;;4.67;;
5010;SDS011;2524;54.364;10.072;2022-09-13T02:28:02;6.97;;;6.33;;
5010;SDS011;2524;54.364;10.072;2022-09-13T02:30:31;6.73;;;6.17;;
5010;SDS011;2524;54.364;10.072;2022-09-13T02:33:17;5.40;;;4.90;;
5010;SDS011;2524;54.364;10.072;2022-09-13T02:35:59;9.00;;;7.97;;
5010;SDS011;2524;54.364;10.072;2022-09-13T02:38:28;6.63;;;6.13;;
5010;SDS011;2524;54.364;10.072;2022-09-13T02:41:06;6.10;;;5.60;;
5010;SDS011;2524;54.364;10.072;2022-09-13T02:43:38;5.63;;;5.20;;
5010;SDS011;2524;54.364;10.072;2022-09-13T02:46:12;6.37;;;5.87;;
5010;SDS011;2524;54.364;10.072;2022-09-13T02:54:18;7.63;;;6.93;;
5010;SDS011;2524;54.364;10.072;2022-09-13T02:56:52;9.50;;;7.60;;
5010;SDS011;2524;54.364;10.072;2022-09-13T02:59:22;6.47;;;5.97;;
5010;SDS011;2524;54.364;10.072;2022-09-13T03:01:50;7.47;;;6.73;;
5010;SDS011;2524;54.364;10.072;2022-09-13T03:04:17;5.93;;;5.43;;
5010;SDS011;2524;54.364;10.072;2022-09-13T03:06:43;7.40;;;6.70;;
5010;SDS011;2524;54.364;10.072;2022-09-13T03:09:09;7.27;;;6.67;;
5010;SDS011;2524;54.364;10.072;2022-09-13T03:17:10;9.03;;;8.13;;
5010;SDS011;2524;54.364;10.072;2022-09-13T03:22:26;8.13;;;7.33;;
5010;SDS011;2524;54.364;10.072;2022-09-13T03:25:07;8.70;;;7.90;;
5010;SDS011;2524;54.364;10.072;2022-09-13T03:27:35;10.43;;;8.87;;
5010;SDS011;2524;54.364;10.072;2022-09-13T03:30:05;10.00;;;9.00;;
5010;SDS011;2524;54.364;10.072;2022-09-13T03:40:13;10.90;;;8.80;;
5010;SDS011;2524;54.364;10.072;2022-09-13T03:43:41;11.80;;;10.50;;
5010;SDS011;2524;54.364;10.072;2022-09-13T03:45:37;11.90;;;9.80;;
5010;SDS011;2524;54.364;10.072;2022-09-13T03:48:05;11.47;;;10.30;;
5010;SDS011;2524;54.364;10.072;2022-09-13T03:50:31;13.43;;;10.17;;
5010;SDS011;2524;54.364;10.072;2022-09-13T03:53:06;12.60;;;9.90;;
5010;SDS011;2524;54.364;10.072;2022-09-13T03:55:33;11.83;;;10.30;;
5010;SDS011;2524;54.364;10.072;2022-09-13T03:58:03;15.73;;;13.60;;
5010;SDS011;2524;54.364;10.072;2022-09-13T04:00:29;13.33;;;11.73;;
5010;SDS011;2524;54.364;10.072;2022-09-13T04:02:55;13.50;;;11.43;;
5010;SDS011;2524;54.364;10.072;2022-09-13T04:05:26;14.57;;;11.60;;
5010;SDS011;2524;54.364;10.072;2022-09-13T04:07:58;12.20;;;10.73;;
5010;SDS011;2524;54.364;10.072;2022-09-13T04:10:26;13.50;;;10.33;;
5010;SDS011;2524;54.364;10.072;2022-09-13T04:12:58;10.90;;;9.80;;
5010;SDS011;2524;54.364;10.072;2022-09-13T04:15:27;14.67;;;10.47;;
5010;SDS011;2524;54.364;10.072;2022-09-13T04:17:55;12.43;;;10.70;;
5010;SDS011;2524;54.364;10.072;2022-09-13T04:23:51;14.90;;;13.20;;
5010;SDS011;2524;54.364;10.072;2022-09-13T04:32:25;12.80;;;11.13;;
5010;SDS011;2524;54.364;10.072;2022-09-13T04:35:08;12.30;;;10.97;;
5010;SDS011;2524;54.364;10.072;2022-09-13T04:37:35;12.33;;;10.40;;
5010;SDS011;2524;54.364;10.072;2022-09-13T04:43:04;16.03;;;13.50;;
5010;SDS011;2524;54.364;10.072;2022-09-13T04:48:25;12.30;;;10.50;;
5010;SDS011;2524;54.364;10.072;2022-09-13T04:51:03;13.47;;;10.63;;
5010;SDS011;2524;54.364;10.072;2022-09-13T04:53:32;10.60;;;9.00;;
5010;SDS011;2524;54.364;10.072;2022-09-13T04:56:06;9.97;;;8.97;;
5010;SDS011;2524;54.364;10.072;2022-09-13T04:58:34;11.30;;;9.67;;
5010;SDS011;2524;54.364;10.072;2022-09-13T05:01:00;12.87;;;10.20;;
5010;SDS011;2524;54.364;10.072;2022-09-13T05:03:36;11.37;;;10.17;;
5010;SDS011;2524;54.364;10.072;2022-09-13T05:06:03;9.93;;;8.23;;
5010;SDS011;2524;54.364;10.072;2022-09-13T05:08:36;9.40;;;8.30;;
5010;SDS011;2524;54.364;10.072;2022-09-13T05:11:14;9.27;;;8.37;;
5010;SDS011;2524;54.364;10.072;2022-09-13T05:13:58;9.30;;;7.53;;
5010;SDS011;2524;54.364;10.072;2022-09-13T05:16:25;9.10;;;7.20;;
5010;SDS011;2524;54.364;10.072;2022-09-13T05:18:52;8.40;;;7.07;;
5010;SDS011;2524;54.364;10.072;2022-09-13T05:21:18;9.37;;;8.20;;
5010;SDS011;2524;54.364;10.072;2022-09-13T05:23:49;7.07;;;6.37;;
5010;SDS011;2524;54.364;10.072;2022-09-13T05:26:15;9.20;;;7.63;;
5010;SDS011;2524;54.364;10.072;2022-09-13T05:28:47;10.40;;;8.10;;
5010;SDS011;2524;54.364;10.072;2022-09-13T05:34:09;9.07;;;7.43;;
5010;SDS011;2524;54.364;10.072;2022-09-13T05:36:36;9.90;;;8.40;;
5010;SDS011;2524;54.364;10.072;2022-09-13T05:39:02;13.20;;;8.23;;
5010;SDS011;2524;54.364;10.072;2022-09-13T05:41:29;7.03;;;6.33;;
5010;SDS011;2524;54.364;10.072;2022-09-13T05:43:56;7.17;;;6.47;;
5010;SDS011;2524;54.364;10.072;2022-09-13T05:46:23;5.93;;;5.30;;
5010;SDS011;2524;54.364;10.072;2022-09-13T05:48:49;7.80;;;5.60;;
5010;SDS011;2524;54.364;10.072;2022-09-13T05:51:16;9.23;;;6.83;;
5010;SDS011;2524;54.364;10.072;2022-09-13T05:53:43;5.13;;;4.50;;
5010;SDS011;2524;54.364;10.072;2022-09-13T05:56:13;4.70;;;4.27;;
5010;SDS011;2524;54.364;10.072;2022-09-13T05:58:43;4.90;;;4.00;;
5010;SDS011;2524;54.364;10.072;2022-09-13T06:01:10;4.20;;;3.70;;
5010;SDS011;2524;54.364;10.072;2022-09-13T06:03:37;5.00;;;2.83;;
5010;SDS011;2524;54.364;10.072;2022-09-13T06:06:09;5.30;;;3.40;;
5010;SDS011;2524;54.364;10.072;2022-09-13T06:08:35;4.10;;;3.00;;
5010;SDS011;2524;54.364;10.072;2022-09-13T06:11:02;4.60;;;2.70;;
5010;SDS011;2524;54.364;10.072;2022-09-13T06:13:29;2.23;;;2.07;;
5010;SDS011;2524;54.364;10.072;2022-09-13T06:15:56;4.33;;;2.43;;
5010;SDS011;2524;54.364;10.072;2022-09-13T06:18:25;2.80;;;1.97;;
5010;SDS011;2524;54.364;10.072;2022-09-13T06:23:42;1.53;;;1.40;;
5010;SDS011;2524;54.364;10.072;2022-09-13T06:26:09;1.57;;;1.47;;
5010;SDS011;2524;54.364;10.072;2022-09-13T06:28:35;1.70;;;1.40;;
5010;SDS011;2524;54.364;10.072;2022-09-13T06:31:05;3.63;;;1.47;;
5010;SDS011;2524;54.364;10.072;2022-09-13T06:33:32;2.00;;;1.50;;
5010;SDS011;2524;54.364;10.072;2022-09-13T06:35:59;1.30;;;1.20;;
5010;SDS011;2524;54.364;10.072;2022-09-13T06:38:26;1.67;;;1.30;;
5010;SDS011;2524;54.364;10.072;2022-09-13T06:40:58;2.23;;;1.23;;
5010;SDS011;2524;54.364;10.072;2022-09-13T06:43:24;1.33;;;1.03;;
5010;SDS011;2524;54.364;10.072;2022-09-13T06:45:50;2.60;;;1.20;;
5010;SDS011;2524;54.364;10.072;2022-09-13T06:48:17;2.50;;;1.20;;
5010;SDS011;2524;54.364;10.072;2022-09-13T06:50:44;3.83;;;1.40;;
5010;SDS011;2524;54.364;10.072;2022-09-13T06:53:10;2.07;;;1.20;;
5010;SDS011;2524;54.364;10.072;2022-09-13T06:55:36;1.97;;;1.03;;
5010;SDS011;2524;54.364;10.072;2022-09-13T06:58:02;1.60;;;1.00;;
5010;SDS011;2524;54.364;10.072;2022-09-13T07:00:28;1.63;;;1.13;;
5010;SDS011;2524;54.364;10.072;2022-09-13T07:02:54;4.43;;;1.30;;
5010;SDS011;2524;54.364;10.072;2022-09-13T07:05:20;5.03;;;1.43;;
5010;SDS011;2524;54.364;10.072;2022-09-13T07:07:46;4.20;;;1.63;;
5010;SDS011;2524;54.364;10.072;2022-09-13T07:10:13;3.33;;;1.10;;
5010;SDS011;2524;54.364;10.072;2022-09-13T07:12:42;2.00;;;1.00;;
5010;SDS011;2524;54.364;10.072;2022-09-13T07:15:08;1.10;;;1.00;;
5010;SDS011;2524;54.364;10.072;2022-09-13T07:17:34;2.43;;;1.20;;
5010;SDS011;2524;54.364;10.072;2022-09-13T07:20:00;1.40;;;0.80;;
5010;SDS011;2524;54.364;10.072;2022-09-13T07:22:26;2.40;;;1.20;;
5010;SDS011;2524;54.364;10.072;2022-09-13T07:24:52;1.70;;;1.00;;
5010;SDS011;2524;54.364;10.072;2022-09-13T07:27:18;1.70;;;0.90;;
5010;SDS011;2524;54.364;10.072;2022-09-13T07:29:44;2.27;;;1.10;;
5010;SDS011;2524;54.364;10.072;2022-09-13T07:32:10;6.17;;;1.47;;
5010;SDS011;2524;54.364;10.072;2022-09-13T07:37:15;4.60;;;1.20;;
5010;SDS011;2524;54.364;10.072;2022-09-13T07:39:41;3.27;;;1.10;;
5010;SDS011;2524;54.364;10.072;2022-09-13T07:42:07;3.13;;;1.30;;
5010;SDS011;2524;54.364;10.072;2022-09-13T07:44:33;5.40;;;1.50;;
5010;SDS011;2524;54.364;10.072;2022-09-13T07:46:59;3.70;;;1.57;;
5010;SDS011;2524;54.364;10.072;2022-09-13T07:49:25;3.87;;;1.27;;
5010;SDS011;2524;54.364;10.072;2022-09-13T07:51:51;2.50;;;1.10;;
5010;SDS011;2524;54.364;10.072;2022-09-13T07:54:18;5.40;;;1.30;;
5010;SDS011;2524;54.364;10.072;2022-09-13T07:56:44;10.00;;;2.33;;
5010;SDS011;2524;54.364;10.072;2022-09-13T07:59:12;2.70;;;1.20;;
5010;SDS011;2524;54.364;10.072;2022-09-13T08:01:41;5.40;;;1.30;;
5010;SDS011;2524;54.364;10.072;2022-09-13T08:04:08;5.03;;;1.50;;
5010;SDS011;2524;54.364;10.072;2022-09-13T08:06:35;3.87;;;1.60;;
5010;SDS011;2524;54.364;10.072;2022-09-13T08:09:03;5.73;;;1.60;;
5010;SDS011;2524;54.364;10.072;2022-09-13T08:11:36;5.70;;;1.50;;
5010;SDS011;2524;54.364;10.072;2022-09-13T08:14:02;2.80;;;1.27;;
5010;SDS011;2524;54.364;10.072;2022-09-13T08:16:32;4.00;;;1.13;;
5010;SDS011;2524;54.364;10.072;2022-09-13T08:18:59;7.90;;;1.73;;
5010;SDS011;2524;54.364;10.072;2022-09-13T08:21:26;3.87;;;1.33;;
5010;SDS011;2524;54.364;10.072;2022-09-13T08:23:56;4.37;;;1.17;;
5010;SDS011;2524;54.364;10.072;2022-09-13T08:26:24;6.73;;;1.77;;
5010;SDS011;2524;54.364;10.072;2022-09-13T08:28:54;5.00;;;1.80;;
5010;SDS011;2524;54.364;10.072;2022-09-13T08:31:20;5.77;;;1.80;;
5010;SDS011;2524;54.364;10.072;2022-09-13T08:33:47;1.77;;;1.10;;
5010;SDS011;2524;54.364;10.072;2022-09-13T08:36:13;5.23;;;1.20;;
5010;SDS011;2524;54.364;10.072;2022-09-13T08:38:46;2.47;;;1.10;;
5010;SDS011;2524;54.364;10.072;2022-09-13T08:46:46;5.80;;;1.33;;
5010;SDS011;2524;54.364;10.072;2022-09-13T08:51:48;1.60;;;0.93;;
5010;SDS011;2524;54.364;10.072;2022-09-13T08:54:16;5.37;;;1.17;;
5010;SDS011;2524;54.364;10.072;2022-09-13T09:02:15;3.50;;;1.20;;
5010;SDS011;2524;54.364;10.072;2022-09-13T09:04:49;5.27;;;1.57;;
5010;SDS011;2524;54.364;10.072;2022-09-13T09:07:25;2.70;;;1.13;;
5010;SDS011;2524;54.364;10.072;2022-09-13T09:13:20;4.37;;;1.30;;
5010;SDS011;2524;54.364;10.072;2022-09-13T09:15:15;2.03;;;1.00;;
5010;SDS011;2524;54.364;10.072;2022-09-13T09:17:47;2.90;;;1.17;;
5010;SDS011;2524;54.364;10.072;2022-09-13T09:22:40;2.20;;;1.00;;
5010;SDS011;2524;54.364;10.072;2022-09-13T09:25:09;3.70;;;1.10;;
5010;SDS011;2524;54.364;10.072;2022-09-13T09:27:36;6.13;;;1.20;;
5010;SDS011;2524;54.364;10.072;2022-09-13T09:30:02;5.27;;;1.43;;
5010;SDS011;2524;54.364;10.072;2022-09-13T09:32:48;4.03;;;1.20;;
5010;SDS011;2524;54.364;10.072;2022-09-13T09:37:44;1.93;;;1.10;;
5010;SDS011;2524;54.364;10.072;2022-09-13T09:40:12;6.10;;;1.20;;
5010;SDS011;2524;54.364;10.072;2022-09-13T09:42:42;3.23;;;1.40;;
5010;SDS011;2524;54.364;10.072;2022-09-13T09:45:25;3.23;;;1.17;;
5010;SDS011;2524;54.364;10.072;2022-09-13T09:47:55;6.47;;;1.40;;
5010;SDS011;2524;54.364;10.072;2022-09-13T09:50:26;2.80;;;0.90;;
5010;SDS011;2524;54.364;10.072;2022-09-13T09:55:45;0.87;;;0.73;;
5010;SDS011;2524;54.364;10.072;2022-09-13T09:58:13;3.00;;;1.10;;
5010;SDS011;2524;54.364;10.072;2022-09-13T10:00:55;3.97;;;1.23;;
5010;SDS011;2524;54.364;10.072;2022-09-13T10:03:25;2.60;;;1.17;;
5010;SDS011;2524;54.364;10.072;2022-09-13T10:06:10;2.50;;;1.17;;
5010;SDS011;2524;54.364;10.072;2022-09-13T10:08:36;3.03;;;1.00;;
5010;SDS011;2524;54.364;10.072;2022-09-13T10:11:03;2.50;;;1.10;;
5010;SDS011;2524;54.364;10.072;2022-09-13T10:13:31;4.10;;;1.23;;
5010;SDS011;2524;54.364;10.072;2022-09-13T10:15:59;6.17;;;1.40;;
5010;SDS011;2524;54.364;10.072;2022-09-13T10:18:32;6.80;;;1.50;;
5010;SDS011;2524;54.364;10.072;2022-09-13T10:23:43;1.83;;;0.70;;
5010;SDS011;2524;54.364;10.072;2022-09-13T10:26:12;2.10;;;1.03;;
5010;SDS011;2524;54.364;10.072;2022-09-13T10:28:42;4.47;;;1.07;;
5010;SDS011;2524;54.364;10.072;2022-09-13T10:31:09;4.03;;;1.27;;
5010;SDS011;2524;54.364;10.072;2022-09-13T10:33:38;3.87;;;1.10;;
5010;SDS011;2524;54.364;10.072;2022-09-13T10:36:06;6.93;;;1.50;;
5010;SDS011;2524;54.364;10.072;2022-09-13T10:38:40;2.43;;;1.27;;
5010;SDS011;2524;54.364;10.072;2022-09-13T10:41:08;2.93;;;0.80;;
5010;SDS011;2524;54.364;10.072;2022-09-13T10:43:34;3.40;;;1.30;;
5010;SDS011;2524;54.364;10.072;2022-09-13T10:46:01;9.20;;;1.30;;
5010;SDS011;2524;54.364;10.072;2022-09-13T10:48:28;4.63;;;2.07;;
5010;SDS011;2524;54.364;10.072;2022-09-13T10:50:59;2.83;;;1.10;;
5010;SDS011;2524;54.364;10.072;2022-09-13T10:53:34;2.60;;;1.00;;
5010;SDS011;2524;54.364;10.072;2022-09-13T10:56:00;2.23;;;1.03;;
5010;SDS011;2524;54.364;10.072;2022-09-13T10:58:27;5.70;;;1.43;;
5010;SDS011;2524;54.364;10.072;2022-09-13T11:11:28;2.03;;;0.93;;
5010;SDS011;2524;54.364;10.072;2022-09-13T11:14:15;2.40;;;1.10;;
5010;SDS011;2524;54.364;10.072;2022-09-13T11:16:47;4.20;;;1.13;;
5010;SDS011;2524;54.364;10.072;2022-09-13T11:19:22;1.80;;;0.70;;
5010;SDS011;2524;54.364;10.072;2022-09-13T11:30:23;5.37;;;1.20;;
5010;SDS011;2524;54.364;10.072;2022-09-13T11:35:57;0.90;;;0.70;;
5010;SDS011;2524;54.364;10.072;2022-09-13T11:38:35;2.57;;;0.90;;
5010;SDS011;2524;54.364;10.072;2022-09-13T11:51:25;6.40;;;1.67;;
5010;SDS011;2524;54.364;10.072;2022-09-13T11:58:49;5.90;;;1.40;;
5010;SDS011;2524;54.364;10.072;2022-09-13T12:01:19;5.70;;;1.70;;
5010;SDS011;2524;54.364;10.072;2022-09-13T12:04:29;2.80;;;1.30;;
5010;SDS011;2524;54.364;10.072;2022-09-13T12:06:38;4.03;;;1.40;;
5010;SDS011;2524;54.364;10.072;2022-09-13T12:09:06;3.67;;;1.30;;
5010;SDS011;2524;54.364;10.072;2022-09-13T12:11:35;5.93;;;1.57;;
5010;SDS011;2524;54.364;10.072;2022-09-13T12:14:10;4.87;;;1.40;;
5010;SDS011;2524;54.364;10.072;2022-09-13T12:16:37;6.00;;;1.50;;
5010;SDS011;2524;54.364;10.072;2022-09-13T12:19:27;6.30;;;1.50;;
5010;SDS011;2524;54.364;10.072;2022-09-13T12:21:52;3.50;;;1.70;;
5010;SDS011;2524;54.364;10.072;2022-09-13T12:24:27;3.20;;;1.50;;
5010;SDS011;2524;54.364;10.072;2022-09-13T12:29:40;9.00;;;1.83;;
5010;SDS011;2524;54.364;10.072;2022-09-13T12:32:09;4.00;;;1.47;;
5010;SDS011;2524;54.364;10.072;2022-09-13T12:39:44;2.83;;;1.37;;
5010;SDS011;2524;54.364;10.072;2022-09-13T12:53:03;4.97;;;1.53;;
5010;SDS011;2524;54.364;10.072;2022-09-13T12:58:19;4.00;;;1.23;;
5010;SDS011;2524;54.364;10.072;2022-09-13T13:03:21;2.90;;;1.20;;
5010;SDS011;2524;54.364;10.072;2022-09-13T13:05:49;3.37;;;1.13;;
5010;SDS011;2524;54.364;10.072;2022-09-13T13:10:44;3.53;;;1.10;;
5010;SDS011;2524;54.364;10.072;2022-09-13T13:13:30;4.13;;;1.10;;
5010;SDS011;2524;54.364;10.072;2022-09-13T13:15:59;4.50;;;1.20;;
5010;SDS011;2524;54.364;10.072;2022-09-13T13:31:10;3.17;;;1.23;;
5010;SDS011;2524;54.364;10.072;2022-09-13T13:41:48;3.03;;;1.00;;
5010;SDS011;2524;54.364;10.072;2022-09-13T13:46:44;5.03;;;1.13;;
5010;SDS011;2524;54.364;10.072;2022-09-13T13:59:49;2.70;;;1.10;;
5010;SDS011;2524;54.364;10.072;2022-09-13T14:02:17;6.63;;;1.47;;
5010;SDS011;2524;54.364;10.072;2022-09-13T14:07:53;2.57;;;1.00;;
5010;SDS011;2524;54.364;10.072;2022-09-13T14:10:21;2.00;;;1.10;;
5010;SDS011;2524;54.364;10.072;2022-09-13T14:12:53;10.10;;;1.23;;
5010;SDS011;2524;54.364;10.072;2022-09-13T14:15:45;2.00;;;1.13;;
5010;SDS011;2524;54.364;10.072;2022-09-13T14:20:59;4.30;;;1.70;;
5010;SDS011;2524;54.364;10.072;2022-09-13T14:23:25;6.77;;;1.90;;
5010;SDS011;2524;54.364;10.072;2022-09-13T14:25:58;3.20;;;1.43;;
5010;SDS011;2524;54.364;10.072;2022-09-13T14:28:24;3.83;;;1.80;;
5010;SDS011;2524;54.364;10.072;2022-09-13T14:30:52;7.77;;;1.67;;
5010;SDS011;2524;54.364;10.072;2022-09-13T14:33:21;3.27;;;1.40;;
5010;SDS011;2524;54.364;10.072;2022-09-13T14:35:55;4.73;;;1.40;;
5010;SDS011;2524;54.364;10.072;2022-09-13T14:38:25;5.53;;;1.60;;
5010;SDS011;2524;54.364;10.072;2022-09-13T14:40:58;4.63;;;1.40;;
5010;SDS011;2524;54.364;10.072;2022-09-13T14:43:25;2.70;;;1.30;;
5010;SDS011;2524;54.364;10.072;2022-09-13T14:45:58;7.40;;;1.40;;
5010;SDS011;2524;54.364;10.072;2022-09-13T14:48:31;4.20;;;1.10;;
5010;SDS011;2524;54.364;10.072;2022-09-13T14:51:02;2.77;;;1.00;;
5010;SDS011;2524;54.364;10.072;2022-09-13T14:53:30;4.47;;;1.50;;
5010;SDS011;2524;54.364;10.072;2022-09-13T14:56:07;3.80;;;1.30;;
5010;SDS011;2524;54.364;10.072;2022-09-13T15:01:08;4.83;;;1.27;;
5010;SDS011;2524;54.364;10.072;2022-09-13T15:03:35;3.93;;;1.40;;
5010;SDS011;2524;54.364;10.072;2022-09-13T15:06:02;2.73;;;1.07;;
5010;SDS011;2524;54.364;10.072;2022-09-13T15:10:59;3.50;;;1.10;;
5010;SDS011;2524;54.364;10.072;2022-09-13T15:13:25;3.10;;;1.00;;
5010;SDS011;2524;54.364;10.072;2022-09-13T15:15:51;1.03;;;0.90;;
5010;SDS011;2524;54.364;10.072;2022-09-13T15:21:05;2.73;;;1.03;;
5010;SDS011;2524;54.364;10.072;2022-09-13T15:23:39;2.30;;;1.47;;
5010;SDS011;2524;54.364;10.072;2022-09-13T15:26:10;2.60;;;1.03;;
5010;SDS011;2524;54.364;10.072;2022-09-13T15:28:48;2.00;;;1.00;;
5010;SDS011;2524;54.364;10.072;2022-09-13T15:33:47;11.23;;;1.20;;
5010;SDS011;2524;54.364;10.072;2022-09-13T15:41:51;1.73;;;0.80;;
5010;SDS011;2524;54.364;10.072;2022-09-13T15:44:17;1.30;;;1.00;;
5010;SDS011;2524;54.364;10.072;2022-09-13T15:46:45;1.67;;;0.90;;
5010;SDS011;2524;54.364;10.072;2022-09-13T15:49:16;3.10;;;1.40;;
5010;SDS011;2524;54.364;10.072;2022-09-13T15:51:42;2.57;;;1.30;;
5010;SDS011;2524;54.364;10.072;2022-09-13T15:54:18;2.97;;;1.13;;
5010;SDS011;2524;54.364;10.072;2022-09-13T15:56:46;1.43;;;1.27;;
5010;SDS011;2524;54.364;10.072;2022-09-13T15:59:15;1.60;;;0.87;;
5010;SDS011;2524;54.364;10.072;2022-09-13T16:01:42;2.07;;;0.97;;
5010;SDS011;2524;54.364;10.072;2022-09-13T16:04:08;1.33;;;1.20;;
5010;SDS011;2524;54.364;10.072;2022-09-13T16:06:34;3.47;;;1.20;;
5010;SDS011;2524;54.364;10.072;2022-09-13T16:09:00;2.07;;;0.97;;
5010;SDS011;2524;54.364;10.072;2022-09-13T16:11:27;4.23;;;1.00;;
5010;SDS011;2524;54.364;10.072;2022-09-13T16:13:53;1.70;;;0.90;;
5010;SDS011;2524;54.364;10.072;2022-09-13T16:16:19;2.03;;;1.17;;
5010;SDS011;2524;54.364;10.072;2022-09-13T16:18:44;2.23;;;1.00;;
5010;SDS011;2524;54.364;10.072;2022-09-13T16:21:10;3.10;;;1.27;;
5010;SDS011;2524;54.364;10.072;2022-09-13T16:23:36;1.70;;;1.27;;
5010;SDS011;2524;54.364;10.072;2022-09-13T16:26:02;2.60;;;1.17;;
5010;SDS011;2524;54.364;10.072;2022-09-13T16:28:29;2.00;;;1.00;;
5010;SDS011;2524;54.364;10.072;2022-09-13T16:30:55;2.93;;;1.07;;
5010;SDS011;2524;54.364;10.072;2022-09-13T16:33:21;2.83;;;0.83;;
5010;SDS011;2524;54.364;10.072;2022-09-13T16:35:47;7.03;;;1.30;;
5010;SDS011;2524;54.364;10.072;2022-09-13T16:38:13;3.03;;;1.10;;
5010;SDS011;2524;54.364;10.072;2022-09-13T16:40:40;1.63;;;1.00;;
5010;SDS011;2524;54.364;10.072;2022-09-13T16:43:07;1.53;;;1.10;;
5010;SDS011;2524;54.364;10.072;2022-09-13T16:45:33;3.60;;;1.43;;
5010;SDS011;2524;54.364;10.072;2022-09-13T16:47:59;8.60;;;1.30;;
5010;SDS011;2524;54.364;10.072;2022-09-13T16:50:25;2.80;;;1.30;;
5010;SDS011;2524;54.364;10.072;2022-09-13T16:52:51;3.17;;;0.90;;
5010;SDS011;2524;54.364;10.072;2022-09-13T16:55:17;2.90;;;1.33;;
5010;SDS011;2524;54.364;10.072;2022-09-13T16:57:43;4.53;;;1.47;;
5010;SDS011;2524;54.364;10.072;2022-09-13T17:00:12;3.47;;;1.30;;
5010;SDS011;2524;54.364;10.072;2022-09-13T17:02:38;7.33;;;1.50;;
5010;SDS011;2524;54.364;10.072;2022-09-13T17:05:04;3.87;;;1.33;;
5010;SDS011;2524;54.364;10.072;2022-09-13T17:07:32;6.63;;;1.23;;
5010;SDS011;2524;54.364;10.072;2022-09-13T17:09:58;2.27;;;1.03;;
5010;SDS011;2524;54.364;10.072;2022-09-13T17:12:25;1.87;;;0.90;;
5010;SDS011;2524;54.364;10.072;2022-09-13T17:14:51;3.43;;;1.00;;
5010;SDS011;2524;54.364;10.072;2022-09-13T17:17:18;2.60;;;1.10;;
5010;SDS011;2524;54.364;10.072;2022-09-13T17:19:44;2.27;;;1.40;;
5010;SDS011;2524;54.364;10.072;2022-09-13T17:22:11;4.70;;;1.13;;
5010;SDS011;2524;54.364;10.072;2022-09-13T17:24:37;1.67;;;1.20;;
5010;SDS011;2524;54.364;10.072;2022-09-13T17:27:04;3.23;;;1.23;;
5010;SDS011;2524;54.364;10.072;2022-09-13T17:29:31;1.50;;;1.30;;
5010;SDS011;2524;54.364;10.072;2022-09-13T17:31:57;3.77;;;1.60;;
5010;SDS011;2524;54.364;10.072;2022-09-13T17:34:24;3.40;;;1.83;;
5010;SDS011;2524;54.364;10.072;2022-09-13T17:36:50;2.40;;;1.77;;
5010;SDS011;2524;54.364;10.072;2022-09-13T17:39:16;3.33;;;1.30;;
5010;SDS011;2524;54.364;10.072;2022-09-13T17:41:42;2.40;;;1.03;;
5010;SDS011;2524;54.364;10.072;2022-09-13T17:44:08;2.20;;;1.07;;
5010;SDS011;2524;54.364;10.072;2022-09-13T17:46:36;4.13;;;1.10;;
5010;SDS011;2524;54.364;10.072;2022-09-13T17:49:02;1.70;;;1.03;;
5010;SDS011;2524;54.364;10.072;2022-09-13T17:51:30;4.60;;;1.30;;
5010;SDS011;2524;54.364;10.072;2022-09-13T17:53:59;3.17;;;1.13;;
5010;SDS011;2524;54.364;10.072;2022-09-13T17:56:27;1.93;;;0.80;;
5010;SDS011;2524;54.364;10.072;2022-09-13T17:59:03;2.30;;;1.23;;
5010;SDS011;2524;54.364;10.072;2022-09-13T18:01:29;1.50;;;1.00;;
5010;SDS011;2524;54.364;10.072;2022-09-13T18:03:55;2.40;;;1.50;;
5010;SDS011;2524;54.364;10.072;2022-09-13T18:06:21;1.17;;;1.07;;
5010;SDS011;2524;54.364;10.072;2022-09-13T18:08:47;2.10;;;1.20;;
5010;SDS011;2524;54.364;10.072;2022-09-13T18:11:14;3.07;;;1.53;;
5010;SDS011;2524;54.364;10.072;2022-09-13T18:13:42;3.73;;;1.10;;
5010;SDS011;2524;54.364;10.072;2022-09-13T18:16:19;2.90;;;1.00;;
5010;SDS011;2524;54.364;10.072;2022-09-13T18:18:45;2.20;;;1.23;;
5010;SDS011;2524;54.364;10.072;2022-09-13T18:21:12;2.97;;;1.40;;
5010;SDS011;2524;54.364;10.072;2022-09-13T18:23:39;4.20;;;1.70;;
5010;SDS011;2524;54.364;10.072;2022-09-13T18:26:06;2.37;;;1.27;;
5010;SDS011;2524;54.364;10.072;2022-09-13T18:28:33;6.07;;;2.30;;
5010;SDS011;2524;54.364;10.072;2022-09-13T18:31:00;4.73;;;1.83;;
5010;SDS011;2524;54.364;10.072;2022-09-13T18:33:27;4.80;;;1.27;;
5010;SDS011;2524;54.364;10.072;2022-09-13T18:38:22;4.90;;;1.53;;
5010;SDS011;2524;54.364;10.072;2022-09-13T18:40:57;1.97;;;1.33;;
5010;SDS011;2524;54.364;10.072;2022-09-13T18:43:23;7.63;;;1.30;;
5010;SDS011;2524;54.364;10.072;2022-09-13T18:45:56;5.00;;;1.50;;
5010;SDS011;2524;54.364;10.072;2022-09-13T18:48:22;5.20;;;1.53;;
5010;SDS011;2524;54.364;10.072;2022-09-13T18:50:48;4.33;;;1.40;;
5010;SDS011;2524;54.364;10.072;2022-09-13T18:53:14;5.87;;;1.87;;
5010;SDS011;2524;54.364;10.072;2022-09-13T18:55:40;5.50;;;1.50;;
5010;SDS011;2524;54.364;10.072;2022-09-13T18:58:06;5.00;;;1.50;;